Time,TemperatureF,DewpointF,PressureIn,WindDirection,WindDirectionDegrees,WindSpeedMPH,WindSpeedGustMPH,Humidity,HourlyPrecipIn,Conditions,Clouds,dailyrainin,SoftwareType,DateUTC
2013-03-01 00:00:00,32.8,30.2,29.75,North,0,2.0,4.7,90,0.00,,,8.38,WUHU216HW,2013-03-01 05:00:00,
2013-03-01 00:05:00,32.6,30.0,29.75,North,0,2.2,4.7,90,2.59,,,0.42,WUHU216HW,2013-03-01 05:05:00,
2013-03-01 00:06:00,32.6,30.0,29.75,North,0,2.5,4.7,90,2.59,,,0.42,WUHU216HW,2013-03-01 05:06:00,
2013-03-01 00:11:00,32.6,30.0,29.75,North,0,3.4,4.3,90,2.59,,,0.42,WUHU216HW,2013-03-01 05:11:00,
2013-03-01 00:16:00,32.6,30.0,29.75,North,0,1.8,3.4,90,2.59,,,0.42,WUHU216HW,2013-03-01 05:16:00,
2013-03-01 00:21:00,32.4,29.9,29.75,North,0,1.1,3.4,90,2.59,,,0.42,WUHU216HW,2013-03-01 05:21:00,
2013-03-01 00:26:00,32.4,29.9,29.75,North,0,2.2,4.0,90,2.59,,,0.42,WUHU216HW,2013-03-01 05:26:00,
2013-03-01 00:31:00,32.4,29.9,29.75,North,0,2.9,4.7,90,2.59,,,0.42,WUHU216HW,2013-03-01 05:31:00,
2013-03-01 00:36:00,32.2,29.7,29.75,North,0,2.7,4.7,90,2.59,,,0.42,WUHU216HW,2013-03-01 05:36:00,
2013-03-01 00:41:00,32.2,29.7,29.76,North,0,1.6,4.7,90,2.59,,,0.42,WUHU216HW,2013-03-01 05:41:00,
2013-03-01 00:46:00,32.0,29.5,29.76,North,0,2.2,3.8,90,2.59,,,0.42,WUHU216HW,2013-03-01 05:46:00,
2013-03-01 00:51:00,32.0,29.5,29.76,North,0,3.4,3.4,90,2.59,,,0.42,WUHU216HW,2013-03-01 05:51:00,
2013-03-01 00:56:00,32.0,29.5,29.76,North,0,2.0,5.1,90,2.59,,,0.42,WUHU216HW,2013-03-01 05:56:00,
2013-03-01 01:01:00,32.0,29.5,29.76,North,0,2.5,5.1,90,0.00,,,0.85,WUHU216HW,2013-03-01 06:01:00,
2013-03-01 01:06:00,32.0,29.3,29.76,North,0,3.6,4.0,89,0.00,,,0.85,WUHU216HW,2013-03-01 06:06:00,
2013-03-01 01:11:00,32.0,29.5,29.76,North,0,2.0,4.7,90,0.00,,,0.85,WUHU216HW,2013-03-01 06:11:00,
2013-03-01 01:16:00,32.0,29.5,29.76,North,0,1.1,4.7,90,0.00,,,0.85,WUHU216HW,2013-03-01 06:16:00,
2013-03-01 01:21:00,32.0,29.5,29.76,North,0,1.1,4.0,90,0.00,,,0.85,WUHU216HW,2013-03-01 06:21:00,
2013-03-01 01:26:00,32.0,29.5,29.76,North,0,4.0,4.0,90,0.00,,,0.85,WUHU216HW,2013-03-01 06:26:00,
2013-03-01 01:31:00,31.9,29.1,29.77,North,0,0.9,4.0,89,0.00,,,0.85,WUHU216HW,2013-03-01 06:31:00,
2013-03-01 01:36:00,31.9,29.1,29.76,North,0,3.4,4.0,89,0.00,,,0.85,WUHU216HW,2013-03-01 06:36:00,
2013-03-01 01:41:00,31.9,29.1,29.77,North,0,2.5,5.1,89,0.00,,,0.85,WUHU216HW,2013-03-01 06:41:00,
2013-03-01 01:46:00,31.9,29.1,29.77,North,0,2.0,5.1,89,0.00,,,0.85,WUHU216HW,2013-03-01 06:46:00,
2013-03-01 01:51:00,31.7,28.9,29.77,North,0,2.5,4.3,89,0.00,,,0.85,WUHU216HW,2013-03-01 06:51:00,
2013-03-01 01:56:00,31.7,28.9,29.77,North,0,3.4,5.8,89,0.00,,,0.85,WUHU216HW,2013-03-01 06:56:00,
2013-03-01 02:01:00,31.7,28.9,29.77,North,0,1.8,5.8,89,0.00,,,1.28,WUHU216HW,2013-03-01 07:01:00,
2013-03-01 02:06:00,31.7,28.9,29.77,North,0,0.9,3.8,89,0.00,,,1.28,WUHU216HW,2013-03-01 07:06:00,
2013-03-01 02:11:00,31.5,28.7,29.77,North,0,1.6,4.0,89,0.00,,,1.28,WUHU216HW,2013-03-01 07:11:00,
2013-03-01 02:16:00,31.5,28.7,29.77,North,0,2.5,5.6,89,0.00,,,1.28,WUHU216HW,2013-03-01 07:16:00,
2013-03-01 02:21:00,31.3,28.5,29.77,North,0,2.0,5.6,89,0.00,,,1.28,WUHU216HW,2013-03-01 07:21:00,
2013-03-01 02:26:00,31.3,28.5,29.77,North,0,2.2,5.4,89,0.00,,,1.28,WUHU216HW,2013-03-01 07:26:00,
2013-03-01 02:31:00,31.3,28.5,29.77,North,0,4.3,5.4,89,0.00,,,1.28,WUHU216HW,2013-03-01 07:31:00,
2013-03-01 02:36:00,31.3,28.5,29.77,North,0,4.0,4.9,89,0.00,,,1.28,WUHU216HW,2013-03-01 07:36:00,
2013-03-01 02:41:00,31.3,28.5,29.78,North,0,1.6,4.7,89,0.00,,,1.28,WUHU216HW,2013-03-01 07:41:00,
2013-03-01 02:46:00,31.3,28.5,29.78,North,0,4.9,4.9,89,0.00,,,1.28,WUHU216HW,2013-03-01 07:46:00,
2013-03-01 02:51:00,31.3,28.5,29.78,North,0,1.6,4.9,89,0.00,,,1.28,WUHU216HW,2013-03-01 07:51:00,
2013-03-01 02:56:00,31.3,28.5,29.78,North,0,1.1,4.9,89,0.00,,,1.28,WUHU216HW,2013-03-01 07:56:00,
2013-03-01 03:01:00,31.3,28.5,29.78,North,0,3.6,3.6,89,0.00,,,1.70,WUHU216HW,2013-03-01 08:01:00,
2013-03-01 03:06:00,31.1,28.4,29.78,North,0,2.2,3.6,89,0.00,,,1.70,WUHU216HW,2013-03-01 08:06:00,
2013-03-01 03:11:00,31.1,28.4,29.78,North,0,1.1,3.6,89,0.00,,,1.70,WUHU216HW,2013-03-01 08:11:00,
2013-03-01 03:16:00,31.1,28.4,29.78,North,0,2.7,3.4,89,0.00,,,1.70,WUHU216HW,2013-03-01 08:16:00,
2013-03-01 03:21:00,31.1,28.4,29.79,North,0,1.8,3.1,89,0.00,,,1.70,WUHU216HW,2013-03-01 08:21:00,
2013-03-01 03:26:00,31.1,28.4,29.79,North,0,1.8,4.3,89,0.00,,,1.70,WUHU216HW,2013-03-01 08:26:00,
2013-03-01 03:31:00,31.1,28.4,29.79,North,0,4.0,5.1,89,0.00,,,1.70,WUHU216HW,2013-03-01 08:31:00,
2013-03-01 03:36:00,31.1,28.4,29.79,North,0,1.3,5.1,89,0.00,,,1.70,WUHU216HW,2013-03-01 08:36:00,
2013-03-01 03:41:00,31.0,28.2,29.79,North,0,1.1,4.0,89,0.00,,,1.70,WUHU216HW,2013-03-01 08:41:00,
2013-03-01 03:46:00,31.0,28.2,29.79,North,0,3.1,3.6,89,0.00,,,1.70,WUHU216HW,2013-03-01 08:46:00,
2013-03-01 03:51:00,31.0,28.2,29.79,North,0,2.5,4.0,89,0.00,,,1.70,WUHU216HW,2013-03-01 08:51:00,
2013-03-01 03:56:00,31.0,28.2,29.79,North,0,2.5,4.3,89,0.00,,,1.70,WUHU216HW,2013-03-01 08:56:00,
2013-03-01 04:01:00,30.8,28.0,29.79,North,0,3.1,4.3,89,0.00,,,2.13,WUHU216HW,2013-03-01 09:01:00,
2013-03-01 04:06:00,30.8,28.0,29.80,North,0,4.3,4.7,89,0.00,,,2.13,WUHU216HW,2013-03-01 09:06:00,
2013-03-01 04:11:00,30.6,27.8,29.80,North,0,1.8,4.9,89,0.00,,,2.13,WUHU216HW,2013-03-01 09:11:00,
2013-03-01 04:16:00,30.6,27.8,29.80,North,0,0.9,5.4,89,0.00,,,2.13,WUHU216HW,2013-03-01 09:16:00,
2013-03-01 04:21:00,30.6,27.8,29.80,North,0,1.1,5.4,89,0.00,,,2.13,WUHU216HW,2013-03-01 09:21:00,
2013-03-01 04:26:00,30.6,27.8,29.80,North,0,3.8,5.8,89,0.00,,,2.13,WUHU216HW,2013-03-01 09:26:00,
2013-03-01 04:31:00,30.6,27.6,29.80,North,0,2.0,5.8,88,0.00,,,2.13,WUHU216HW,2013-03-01 09:31:00,
2013-03-01 04:36:00,30.6,27.6,29.80,North,0,2.0,4.9,88,0.00,,,2.13,WUHU216HW,2013-03-01 09:36:00,
2013-03-01 04:41:00,30.6,27.6,29.80,North,0,2.9,4.9,88,0.00,,,2.13,WUHU216HW,2013-03-01 09:41:00,
2013-03-01 04:46:00,30.6,27.6,29.80,North,0,3.1,3.1,88,0.00,,,2.13,WUHU216HW,2013-03-01 09:46:00,
2013-03-01 04:51:00,30.6,27.6,29.81,North,0,1.8,3.6,88,0.00,,,2.13,WUHU216HW,2013-03-01 09:51:00,
2013-03-01 04:56:00,30.6,27.6,29.81,North,0,1.1,4.0,88,0.00,,,2.13,WUHU216HW,2013-03-01 09:56:00,
2013-03-01 05:01:00,30.6,27.6,29.81,North,0,4.0,4.5,88,0.00,,,2.56,WUHU216HW,2013-03-01 10:01:00,
2013-03-01 05:06:00,30.6,27.6,29.81,North,0,2.5,4.5,88,0.00,,,2.56,WUHU216HW,2013-03-01 10:06:00,
2013-03-01 05:11:00,30.6,27.6,29.81,North,0,1.8,5.6,88,0.00,,,2.56,WUHU216HW,2013-03-01 10:11:00,
2013-03-01 05:16:00,30.6,27.6,29.81,North,0,1.3,5.6,88,0.00,,,2.56,WUHU216HW,2013-03-01 10:16:00,
2013-03-01 05:21:00,30.6,27.6,29.82,North,0,2.2,5.4,88,0.00,,,2.56,WUHU216HW,2013-03-01 10:21:00,
2013-03-01 05:26:00,30.4,27.4,29.82,North,0,0.9,5.4,88,0.00,,,2.56,WUHU216HW,2013-03-01 10:26:00,
2013-03-01 05:31:00,30.4,27.0,29.82,North,0,4.0,5.1,87,0.00,,,2.56,WUHU216HW,2013-03-01 10:31:00,
2013-03-01 05:36:00,30.4,27.0,29.82,North,0,3.4,5.4,87,0.00,,,2.56,WUHU216HW,2013-03-01 10:36:00,
2013-03-01 05:41:00,30.2,26.8,29.82,North,0,3.4,9.6,87,0.00,,,2.56,WUHU216HW,2013-03-01 10:41:00,
2013-03-01 05:46:00,30.2,26.6,29.82,North,0,0.7,9.6,86,0.00,,,2.56,WUHU216HW,2013-03-01 10:46:00,
2013-03-01 05:51:00,30.1,26.4,29.82,North,0,1.6,5.1,86,0.00,,,2.56,WUHU216HW,2013-03-01 10:51:00,
2013-03-01 05:56:00,30.1,26.4,29.82,North,0,2.9,3.8,86,0.00,,,2.56,WUHU216HW,2013-03-01 10:56:00,
2013-03-01 06:01:00,29.9,26.2,29.83,North,0,1.3,4.5,86,0.00,,,2.98,WUHU216HW,2013-03-01 11:01:00,
2013-03-01 06:06:00,29.9,26.5,29.82,North,0,2.5,4.7,87,0.00,,,2.98,WUHU216HW,2013-03-01 11:06:00,
2013-03-01 06:11:00,29.9,26.5,29.83,North,0,1.3,4.7,87,0.00,,,2.98,WUHU216HW,2013-03-01 11:11:00,
2013-03-01 06:16:00,29.9,26.5,29.83,North,0,0.7,3.8,87,0.00,,,2.98,WUHU216HW,2013-03-01 11:16:00,
2013-03-01 06:21:00,29.9,26.5,29.83,North,0,1.8,5.6,87,0.00,,,2.98,WUHU216HW,2013-03-01 11:21:00,
2013-03-01 06:26:00,29.9,26.5,29.83,North,0,0.9,5.6,87,0.00,,,2.98,WUHU216HW,2013-03-01 11:26:00,
2013-03-01 06:31:00,29.9,26.5,29.83,North,0,1.1,4.7,87,0.00,,,2.98,WUHU216HW,2013-03-01 11:31:00,
2013-03-01 06:36:00,29.9,26.5,29.84,North,0,1.1,3.8,87,0.00,,,2.98,WUHU216HW,2013-03-01 11:36:00,
2013-03-01 06:41:00,29.9,26.5,29.84,North,0,1.3,5.1,87,0.00,,,2.98,WUHU216HW,2013-03-01 11:41:00,
2013-03-01 06:46:00,29.9,26.5,29.84,North,0,0.4,5.1,87,0.00,,,2.98,WUHU216HW,2013-03-01 11:46:00,
2013-03-01 06:51:00,29.9,26.2,29.84,North,0,2.0,5.6,86,0.00,,,2.98,WUHU216HW,2013-03-01 11:51:00,
2013-03-01 06:56:00,29.9,26.2,29.84,North,0,1.8,5.6,86,0.00,,,2.98,WUHU216HW,2013-03-01 11:56:00,
2013-03-01 07:01:00,29.7,26.0,29.84,North,0,3.4,5.4,86,0.00,,,3.41,WUHU216HW,2013-03-01 12:01:00,
2013-03-01 07:06:00,29.9,26.2,29.84,North,0,2.7,5.4,86,0.00,,,3.41,WUHU216HW,2013-03-01 12:06:00,
2013-03-01 07:11:00,29.9,26.2,29.84,North,0,1.6,5.1,86,0.00,,,3.41,WUHU216HW,2013-03-01 12:11:00,
2013-03-01 07:16:00,29.7,26.0,29.85,North,0,2.7,5.4,86,0.00,,,3.41,WUHU216HW,2013-03-01 12:16:00,
2013-03-01 07:21:00,29.9,26.2,29.85,North,0,3.6,5.4,86,0.00,,,3.41,WUHU216HW,2013-03-01 12:21:00,
2013-03-01 07:26:00,29.9,26.2,29.85,North,0,1.1,4.7,86,0.00,,,3.41,WUHU216HW,2013-03-01 12:26:00,
2013-03-01 07:31:00,29.9,26.2,29.85,North,0,2.9,5.8,86,0.00,,,3.41,WUHU216HW,2013-03-01 12:31:00,
2013-03-01 07:36:00,29.9,26.2,29.85,North,0,1.1,5.8,86,0.00,,,3.41,WUHU216HW,2013-03-01 12:36:00,
2013-03-01 07:41:00,29.7,26.0,29.86,North,0,4.0,5.6,86,0.00,,,3.41,WUHU216HW,2013-03-01 12:41:00,
2013-03-01 07:46:00,29.9,26.2,29.85,North,0,1.6,5.6,86,0.00,,,3.41,WUHU216HW,2013-03-01 12:46:00,
2013-03-01 07:51:00,29.7,26.0,29.86,North,0,2.5,4.5,86,0.00,,,3.41,WUHU216HW,2013-03-01 12:51:00,
2013-03-01 07:56:00,29.9,26.2,29.86,North,0,2.2,4.3,86,0.00,,,3.41,WUHU216HW,2013-03-01 12:56:00,
2013-03-01 08:01:00,29.9,26.2,29.86,North,0,1.1,4.3,86,0.00,,,3.84,WUHU216HW,2013-03-01 13:01:00,
2013-03-01 08:06:00,29.9,26.2,29.86,North,0,2.5,4.0,86,0.00,,,3.84,WUHU216HW,2013-03-01 13:06:00,
2013-03-01 08:11:00,29.9,26.2,29.86,North,0,2.5,4.0,86,0.00,,,3.84,WUHU216HW,2013-03-01 13:11:00,
2013-03-01 08:16:00,29.9,26.2,29.86,North,0,1.1,4.0,86,0.00,,,3.84,WUHU216HW,2013-03-01 13:16:00,
2013-03-01 08:21:00,29.9,26.2,29.87,North,0,1.1,4.3,86,0.00,,,3.84,WUHU216HW,2013-03-01 13:21:00,
2013-03-01 08:26:00,29.9,26.2,29.87,North,0,0.9,4.3,86,0.00,,,3.84,WUHU216HW,2013-03-01 13:26:00,
2013-03-01 08:31:00,29.9,26.2,29.87,North,0,1.1,4.0,86,0.00,,,3.84,WUHU216HW,2013-03-01 13:31:00,
2013-03-01 08:36:00,30.1,26.4,29.87,North,0,1.8,4.5,86,0.00,,,3.84,WUHU216HW,2013-03-01 13:36:00,
2013-03-01 08:41:00,30.1,26.4,29.87,North,0,1.1,4.5,86,0.00,,,3.84,WUHU216HW,2013-03-01 13:41:00,
2013-03-01 08:46:00,30.1,26.4,29.87,North,0,1.1,3.8,86,0.00,,,3.84,WUHU216HW,2013-03-01 13:46:00,
2013-03-01 08:51:00,30.2,26.6,29.87,North,0,1.1,2.9,86,0.00,,,3.84,WUHU216HW,2013-03-01 13:51:00,
2013-03-01 08:56:00,30.2,26.6,29.87,North,0,1.8,3.6,86,0.00,,,3.84,WUHU216HW,2013-03-01 13:56:00,
2013-03-01 09:01:00,30.2,26.6,29.87,North,0,1.1,3.6,86,0.00,,,4.26,WUHU216HW,2013-03-01 14:01:00,
2013-03-01 09:06:00,30.2,26.6,29.87,North,0,4.7,5.4,86,0.00,,,4.26,WUHU216HW,2013-03-01 14:06:00,
2013-03-01 09:11:00,30.2,26.6,29.87,North,0,2.5,5.4,86,0.00,,,4.26,WUHU216HW,2013-03-01 14:11:00,
2013-03-01 09:16:00,29.9,25.9,29.87,North,0,6.0,8.5,85,0.00,,,4.26,WUHU216HW,2013-03-01 14:16:00,
2013-03-01 09:21:00,29.9,25.9,29.87,North,0,0.7,8.5,85,0.00,,,4.26,WUHU216HW,2013-03-01 14:21:00,
2013-03-01 09:26:00,30.1,26.1,29.87,North,0,1.3,6.0,85,0.00,,,4.26,WUHU216HW,2013-03-01 14:26:00,
2013-03-01 09:31:00,30.2,26.3,29.87,North,0,1.3,4.3,85,0.00,,,4.26,WUHU216HW,2013-03-01 14:31:00,
2013-03-01 09:36:00,30.2,26.3,29.87,North,0,1.1,4.3,85,0.00,,,4.26,WUHU216HW,2013-03-01 14:36:00,
2013-03-01 09:41:00,30.2,26.3,29.87,North,0,2.5,4.0,85,0.00,,,4.26,WUHU216HW,2013-03-01 14:41:00,
2013-03-01 09:46:00,30.4,26.5,29.87,North,0,1.1,4.0,85,0.00,,,4.26,WUHU216HW,2013-03-01 14:46:00,
2013-03-01 09:51:00,30.4,26.5,29.87,North,0,3.4,5.8,85,0.00,,,4.26,WUHU216HW,2013-03-01 14:51:00,
2013-03-01 09:56:00,30.2,26.3,29.88,North,0,4.3,5.8,85,0.00,,,4.26,WUHU216HW,2013-03-01 14:56:00,
2013-03-01 10:01:00,30.2,26.0,29.87,North,0,3.8,6.3,84,0.00,,,4.69,WUHU216HW,2013-03-01 15:01:00,
2013-03-01 10:06:00,30.2,26.0,29.88,North,0,3.8,6.3,84,0.00,,,4.69,WUHU216HW,2013-03-01 15:06:00,
2013-03-01 10:11:00,29.9,25.7,29.88,North,0,4.5,6.0,84,0.00,,,4.69,WUHU216HW,2013-03-01 15:11:00,
2013-03-01 10:16:00,29.9,25.7,29.88,North,0,2.5,8.5,84,0.00,,,4.69,WUHU216HW,2013-03-01 15:16:00,
2013-03-01 10:21:00,29.9,25.7,29.88,North,0,1.3,8.5,84,0.00,,,4.69,WUHU216HW,2013-03-01 15:21:00,
2013-03-01 10:26:00,30.1,25.6,29.88,North,0,1.6,4.7,83,0.00,,,4.69,WUHU216HW,2013-03-01 15:26:00,
2013-03-01 10:31:00,30.1,25.6,29.89,North,0,1.8,5.1,83,0.00,,,4.69,WUHU216HW,2013-03-01 15:31:00,
2013-03-01 10:36:00,30.1,25.6,29.89,North,0,2.9,5.1,83,0.00,,,4.69,WUHU216HW,2013-03-01 15:36:00,
2013-03-01 10:41:00,30.1,25.6,29.89,North,0,2.5,6.5,83,0.00,,,4.69,WUHU216HW,2013-03-01 15:41:00,
2013-03-01 10:46:00,29.9,25.4,29.89,North,0,3.4,6.9,83,0.00,,,4.69,WUHU216HW,2013-03-01 15:46:00,
2013-03-01 10:51:00,29.9,25.4,29.90,North,0,3.4,6.9,83,0.00,,,4.69,WUHU216HW,2013-03-01 15:51:00,
2013-03-01 10:56:00,30.1,25.6,29.90,North,0,2.5,5.6,83,0.00,,,4.69,WUHU216HW,2013-03-01 15:56:00,
2013-03-01 11:01:00,29.9,25.0,29.90,North,0,2.9,6.3,82,0.00,,,5.12,WUHU216HW,2013-03-01 16:01:00,
2013-03-01 11:06:00,30.1,25.6,29.90,North,0,0.9,6.3,83,0.00,,,5.12,WUHU216HW,2013-03-01 16:06:00,
2013-03-01 11:11:00,30.2,25.4,29.89,North,0,2.7,4.0,82,0.00,,,5.12,WUHU216HW,2013-03-01 16:11:00,
2013-03-01 11:16:00,30.4,25.6,29.90,North,0,3.6,7.6,82,0.00,,,5.12,WUHU216HW,2013-03-01 16:16:00,
2013-03-01 11:21:00,30.4,25.3,29.90,North,0,3.4,7.6,81,0.00,,,5.12,WUHU216HW,2013-03-01 16:21:00,
2013-03-01 11:26:00,30.6,25.5,29.90,North,0,1.8,4.7,81,0.00,,,5.12,WUHU216HW,2013-03-01 16:26:00,
2013-03-01 11:31:00,30.8,25.7,29.90,North,0,3.4,4.7,81,0.00,,,5.12,WUHU216HW,2013-03-01 16:31:00,
2013-03-01 11:36:00,30.8,25.7,29.90,North,0,2.7,4.0,81,0.00,,,5.12,WUHU216HW,2013-03-01 16:36:00,
2013-03-01 11:41:00,31.0,25.8,29.90,North,0,2.5,4.0,81,0.00,,,5.12,WUHU216HW,2013-03-01 16:41:00,
2013-03-01 11:46:00,31.0,25.6,29.90,North,0,3.6,5.1,80,0.00,,,5.12,WUHU216HW,2013-03-01 16:46:00,
2013-03-01 11:51:00,31.1,25.7,29.90,North,0,5.4,5.6,80,0.00,,,5.12,WUHU216HW,2013-03-01 16:51:00,
2013-03-01 11:56:00,31.3,25.9,29.90,North,0,4.0,8.9,80,0.00,,,5.12,WUHU216HW,2013-03-01 16:56:00,
2013-03-01 12:01:00,31.5,26.1,29.90,North,0,3.4,8.9,80,0.00,,,5.54,WUHU216HW,2013-03-01 17:01:00,
2013-03-01 12:06:00,31.9,26.1,29.90,North,0,2.0,9.8,79,0.00,,,5.54,WUHU216HW,2013-03-01 17:06:00,
2013-03-01 12:11:00,31.7,25.9,29.90,North,0,4.0,9.8,79,0.00,,,5.54,WUHU216HW,2013-03-01 17:11:00,
2013-03-01 12:16:00,31.3,25.6,29.90,North,0,2.5,8.1,79,0.00,,,5.54,WUHU216HW,2013-03-01 17:16:00,
2013-03-01 12:21:00,31.3,25.6,29.90,North,0,2.7,8.1,79,0.00,,,5.54,WUHU216HW,2013-03-01 17:21:00,
2013-03-01 12:26:00,31.1,25.4,29.90,North,0,6.3,8.3,79,0.00,,,5.54,WUHU216HW,2013-03-01 17:26:00,
2013-03-01 12:31:00,31.1,25.4,29.90,North,0,3.8,8.3,79,0.00,,,5.54,WUHU216HW,2013-03-01 17:31:00,
2013-03-01 12:36:00,31.1,25.4,29.90,North,0,3.6,7.6,79,0.00,,,5.54,WUHU216HW,2013-03-01 17:36:00,
2013-03-01 12:41:00,31.1,25.4,29.90,North,0,3.1,7.6,79,0.00,,,5.54,WUHU216HW,2013-03-01 17:41:00,
2013-03-01 12:46:00,31.0,25.2,29.90,North,0,1.6,7.6,79,0.00,,,5.54,WUHU216HW,2013-03-01 17:46:00,
2013-03-01 12:51:00,31.0,25.2,29.89,North,0,4.5,5.8,79,0.00,,,5.54,WUHU216HW,2013-03-01 17:51:00,
2013-03-01 12:55:00,31.5,25.7,29.89,North,0,3.6,8.5,79,0.00,,,5.54,WUHU216HW,2013-03-01 17:55:00,
2013-03-01 13:00:00,31.5,25.7,29.89,North,0,7.6,8.5,79,0.00,,,5.97,WUHU216HW,2013-03-01 18:00:00,
2013-03-01 13:05:00,31.3,25.6,29.89,North,0,7.6,9.2,79,0.00,,,5.97,WUHU216HW,2013-03-01 18:05:00,
2013-03-01 13:10:00,31.3,25.6,29.89,North,0,9.2,9.8,79,0.00,,,5.97,WUHU216HW,2013-03-01 18:10:00,
2013-03-01 13:15:00,30.8,25.0,29.89,North,0,4.9,9.8,79,0.00,,,5.97,WUHU216HW,2013-03-01 18:15:00,
2013-03-01 13:20:00,30.8,25.0,29.89,North,0,3.8,9.2,79,0.00,,,5.97,WUHU216HW,2013-03-01 18:20:00,
2013-03-01 13:25:00,30.8,25.0,29.89,North,0,4.0,7.6,79,0.00,,,5.97,WUHU216HW,2013-03-01 18:25:00,
2013-03-01 13:30:00,30.6,24.8,29.89,North,0,6.3,7.4,79,0.00,,,5.97,WUHU216HW,2013-03-01 18:30:00,
2013-03-01 13:35:00,30.6,24.8,29.90,North,0,4.7,8.7,79,0.00,,,5.97,WUHU216HW,2013-03-01 18:35:00,
2013-03-01 13:40:00,30.4,24.7,29.90,North,0,7.8,8.7,79,0.00,,,5.97,WUHU216HW,2013-03-01 18:40:00,
2013-03-01 13:45:00,30.1,24.3,29.90,North,0,1.6,10.1,79,0.00,,,5.97,WUHU216HW,2013-03-01 18:45:00,
2013-03-01 13:50:00,29.9,24.1,29.90,North,0,2.5,10.1,79,0.00,,,5.97,WUHU216HW,2013-03-01 18:50:00,
2013-03-01 13:55:00,29.7,23.9,29.90,North,0,6.7,7.6,79,0.00,,,5.97,WUHU216HW,2013-03-01 18:55:00,
2013-03-01 14:00:00,29.7,23.9,29.90,North,0,2.5,8.1,79,0.00,,,6.40,WUHU216HW,2013-03-01 19:00:00,
2013-03-01 14:05:00,29.5,23.8,29.90,North,0,1.3,8.1,79,0.00,,,6.40,WUHU216HW,2013-03-01 19:05:00,
2013-03-01 14:10:00,29.3,23.7,29.90,North,0,4.0,8.5,79,0.00,,,6.40,WUHU216HW,2013-03-01 19:10:00,
2013-03-01 14:15:00,29.3,23.7,29.90,North,0,5.8,8.5,79,0.00,,,6.40,WUHU216HW,2013-03-01 19:15:00,
2013-03-01 14:20:00,29.5,23.8,29.90,North,0,6.0,8.1,79,0.00,,,6.40,WUHU216HW,2013-03-01 19:20:00,
2013-03-01 14:25:00,29.5,23.8,29.90,North,0,4.3,8.1,79,0.00,,,6.40,WUHU216HW,2013-03-01 19:25:00,
2013-03-01 14:30:00,29.3,23.7,29.90,North,0,1.1,8.1,79,0.00,,,6.40,WUHU216HW,2013-03-01 19:30:00,
2013-03-01 14:35:00,29.5,23.8,29.90,North,0,5.4,5.4,79,0.00,,,6.40,WUHU216HW,2013-03-01 19:35:00,
2013-03-01 14:40:00,29.5,23.8,29.90,North,0,5.4,8.3,79,0.00,,,6.40,WUHU216HW,2013-03-01 19:40:00,
2013-03-01 14:45:00,29.5,23.8,29.90,North,0,4.7,8.3,79,0.00,,,6.40,WUHU216HW,2013-03-01 19:45:00,
2013-03-01 14:50:00,29.3,23.7,29.90,North,0,2.5,6.9,79,0.00,,,6.40,WUHU216HW,2013-03-01 19:50:00,
2013-03-01 14:55:00,29.0,23.0,29.90,North,0,2.0,5.8,78,0.00,,,6.40,WUHU216HW,2013-03-01 19:55:00,
2013-03-01 15:00:00,29.0,23.3,29.90,North,0,2.2,7.4,79,0.00,,,6.82,WUHU216HW,2013-03-01 20:00:00,
2013-03-01 15:05:00,28.8,22.8,29.90,North,0,3.6,7.4,78,0.00,,,6.82,WUHU216HW,2013-03-01 20:05:00,
2013-03-01 15:10:00,28.8,22.8,29.90,North,0,6.0,7.8,78,0.00,,,6.82,WUHU216HW,2013-03-01 20:10:00,
2013-03-01 15:15:00,28.8,22.8,29.90,North,0,8.7,8.7,78,0.00,,,6.82,WUHU216HW,2013-03-01 20:15:00,
2013-03-01 15:20:00,28.8,22.8,29.91,North,0,8.9,8.9,78,0.00,,,6.82,WUHU216HW,2013-03-01 20:20:00,
2013-03-01 15:25:00,28.6,22.6,29.90,North,0,7.4,11.4,78,0.00,,,6.82,WUHU216HW,2013-03-01 20:25:00,
2013-03-01 15:30:00,28.4,22.4,29.90,North,0,3.8,11.4,78,0.00,,,6.82,WUHU216HW,2013-03-01 20:30:00,
2013-03-01 15:35:00,28.4,22.4,29.90,North,0,6.5,7.4,78,0.00,,,6.82,WUHU216HW,2013-03-01 20:35:00,
2013-03-01 15:40:00,28.4,22.4,29.90,North,0,2.7,6.9,78,0.00,,,6.82,WUHU216HW,2013-03-01 20:40:00,
2013-03-01 15:45:00,28.4,22.2,29.91,North,0,5.4,8.5,77,0.00,,,6.82,WUHU216HW,2013-03-01 20:45:00,
2013-03-01 15:50:00,28.3,22.0,29.91,North,0,4.0,8.5,77,0.00,,,6.82,WUHU216HW,2013-03-01 20:50:00,
2013-03-01 15:55:00,28.3,22.2,29.91,North,0,0.9,7.6,78,0.00,,,6.82,WUHU216HW,2013-03-01 20:55:00,
2013-03-01 16:00:00,28.3,22.0,29.90,North,0,4.0,5.8,77,0.00,,,7.25,WUHU216HW,2013-03-01 21:00:00,
2013-03-01 16:05:00,28.1,21.8,29.91,North,0,5.8,7.2,77,0.00,,,7.25,WUHU216HW,2013-03-01 21:05:00,
2013-03-01 16:10:00,28.1,22.1,29.90,North,0,5.4,7.6,78,0.00,,,7.25,WUHU216HW,2013-03-01 21:10:00,
2013-03-01 16:15:00,28.1,22.1,29.90,North,0,2.9,7.6,78,0.00,,,7.25,WUHU216HW,2013-03-01 21:15:00,
2013-03-01 16:20:00,28.1,22.1,29.90,North,0,6.3,6.9,78,0.00,,,7.25,WUHU216HW,2013-03-01 21:20:00,
2013-03-01 16:25:00,28.1,21.8,29.91,North,0,8.5,8.5,77,0.00,,,7.25,WUHU216HW,2013-03-01 21:25:00,
2013-03-01 16:30:00,27.7,21.4,29.91,North,0,2.9,8.5,77,0.00,,,7.25,WUHU216HW,2013-03-01 21:30:00,
2013-03-01 16:35:00,27.7,21.7,29.91,North,0,1.1,8.5,78,0.00,,,7.25,WUHU216HW,2013-03-01 21:35:00,
2013-03-01 16:40:00,27.7,21.7,29.91,North,0,1.8,5.4,78,0.00,,,7.25,WUHU216HW,2013-03-01 21:40:00,
2013-03-01 16:45:00,27.7,21.7,29.91,North,0,2.5,5.4,78,0.00,,,7.25,WUHU216HW,2013-03-01 21:45:00,
2013-03-01 16:51:00,27.7,21.7,29.91,North,0,0.7,4.3,78,0.00,,,7.25,WUHU216HW,2013-03-01 21:51:00,
2013-03-01 16:56:00,27.9,21.9,29.91,North,0,2.9,4.3,78,0.00,,,7.25,WUHU216HW,2013-03-01 21:56:00,
2013-03-01 17:00:00,27.7,21.7,29.91,North,0,2.2,4.9,78,0.00,,,7.68,WUHU216HW,2013-03-01 22:00:00,
2013-03-01 17:05:00,27.9,21.9,29.91,North,0,2.2,5.4,78,0.00,,,7.68,WUHU216HW,2013-03-01 22:05:00,
2013-03-01 17:10:00,27.7,21.7,29.91,North,0,0.7,5.4,78,0.00,,,7.68,WUHU216HW,2013-03-01 22:10:00,
2013-03-01 17:15:00,27.7,21.7,29.91,North,0,2.5,4.3,78,0.00,,,7.68,WUHU216HW,2013-03-01 22:15:00,
2013-03-01 17:20:00,27.5,21.5,29.91,North,0,2.2,3.4,78,0.00,,,7.68,WUHU216HW,2013-03-01 22:20:00,
2013-03-01 17:25:00,27.7,21.7,29.92,North,0,0.7,3.4,78,0.00,,,7.68,WUHU216HW,2013-03-01 22:25:00,
2013-03-01 17:30:00,27.7,21.7,29.92,North,0,4.0,4.0,78,0.00,,,7.68,WUHU216HW,2013-03-01 22:30:00,
2013-03-01 17:35:00,27.7,21.7,29.92,North,0,1.6,4.0,78,0.00,,,7.68,WUHU216HW,2013-03-01 22:35:00,
2013-03-01 17:40:00,27.7,21.7,29.92,North,0,2.7,6.9,78,0.00,,,7.68,WUHU216HW,2013-03-01 22:40:00,
2013-03-01 17:45:00,27.7,21.7,29.92,North,0,2.5,6.9,78,0.00,,,7.68,WUHU216HW,2013-03-01 22:45:00,
2013-03-01 17:50:00,27.7,21.7,29.92,North,0,2.2,5.8,78,0.00,,,7.68,WUHU216HW,2013-03-01 22:50:00,
2013-03-01 17:55:00,27.9,21.9,29.92,North,0,0.2,5.8,78,0.00,,,7.68,WUHU216HW,2013-03-01 22:55:00,
2013-03-01 18:00:00,27.9,21.9,29.92,North,0,2.9,3.1,78,0.00,,,8.10,WUHU216HW,2013-03-01 23:00:00,
2013-03-01 18:05:00,27.9,21.9,29.92,North,0,5.1,5.1,78,0.00,,,8.10,WUHU216HW,2013-03-01 23:05:00,
2013-03-01 18:10:00,28.1,22.1,29.92,North,0,0.7,5.1,78,0.00,,,8.10,WUHU216HW,2013-03-01 23:10:00,
2013-03-01 18:15:00,28.1,22.1,29.92,North,0,4.7,5.1,78,0.00,,,8.10,WUHU216HW,2013-03-01 23:15:00,
2013-03-01 18:20:00,28.1,22.1,29.92,North,0,1.8,6.3,78,0.00,,,8.10,WUHU216HW,2013-03-01 23:20:00,
2013-03-01 18:25:00,28.1,22.1,29.92,North,0,1.8,6.3,78,0.00,,,8.10,WUHU216HW,2013-03-01 23:25:00,
2013-03-01 18:30:00,28.1,22.1,29.92,North,0,3.4,4.7,78,0.00,,,8.10,WUHU216HW,2013-03-01 23:30:00,
2013-03-01 18:35:00,28.3,22.2,29.92,North,0,1.8,4.7,78,0.00,,,8.10,WUHU216HW,2013-03-01 23:35:00,
2013-03-01 18:40:00,28.3,22.2,29.92,North,0,1.1,4.7,78,0.00,,,8.10,WUHU216HW,2013-03-01 23:40:00,
2013-03-01 18:45:00,28.3,22.2,29.92,North,0,2.2,4.7,78,0.00,,,8.10,WUHU216HW,2013-03-01 23:45:00,
2013-03-01 18:50:00,28.3,22.2,29.92,North,0,1.3,4.7,78,0.00,,,8.10,WUHU216HW,2013-03-01 23:50:00,
2013-03-01 18:55:00,28.4,22.4,29.92,North,0,4.0,6.5,78,0.00,,,8.10,WUHU216HW,2013-03-01 23:55:00,
2013-03-01 19:00:00,28.4,22.4,29.92,North,0,4.0,7.4,78,0.00,,,8.53,WUHU216HW,2013-03-02 00:00:00,
2013-03-01 19:05:00,28.4,22.4,29.92,North,0,5.4,7.4,78,0.00,,,8.53,WUHU216HW,2013-03-02 00:05:00,
2013-03-01 19:10:00,28.4,22.4,29.92,North,0,4.5,6.7,78,0.00,,,8.53,WUHU216HW,2013-03-02 00:10:00,
2013-03-01 19:15:00,28.4,22.4,29.92,North,0,2.7,5.4,78,0.00,,,8.53,WUHU216HW,2013-03-02 00:15:00,
2013-03-01 19:20:00,28.4,22.4,29.93,North,0,2.7,4.5,78,0.00,,,8.53,WUHU216HW,2013-03-02 00:20:00,
2013-03-01 19:25:00,28.4,22.4,29.93,North,0,5.6,5.6,78,0.00,,,8.53,WUHU216HW,2013-03-02 00:25:00,
2013-03-01 19:30:00,28.4,22.4,29.93,North,0,1.3,6.9,78,0.00,,,8.53,WUHU216HW,2013-03-02 00:30:00,
2013-03-01 19:35:00,28.4,22.4,29.93,North,0,4.3,6.9,78,0.00,,,8.53,WUHU216HW,2013-03-02 00:35:00,
2013-03-01 19:40:00,28.4,22.4,29.93,North,0,3.4,6.9,78,0.00,,,8.53,WUHU216HW,2013-03-02 00:40:00,
2013-03-01 19:45:00,28.4,22.4,29.93,North,0,1.8,4.5,78,0.00,,,8.53,WUHU216HW,2013-03-02 00:45:00,
2013-03-01 19:50:00,28.4,22.8,29.93,North,0,0.7,3.4,79,0.00,,,8.53,WUHU216HW,2013-03-02 00:50:00,
2013-03-01 19:55:00,28.4,22.8,29.93,North,0,1.6,4.5,79,0.00,,,8.53,WUHU216HW,2013-03-02 00:55:00,
2013-03-01 20:00:00,28.4,22.8,29.93,North,0,2.2,4.5,79,0.00,,,8.96,WUHU216HW,2013-03-02 01:00:00,
2013-03-01 20:05:00,28.3,22.2,29.93,North,0,1.3,4.5,78,0.00,,,8.96,WUHU216HW,2013-03-02 01:05:00,
2013-03-01 20:10:00,28.3,22.6,29.93,North,0,1.1,4.5,79,0.00,,,8.96,WUHU216HW,2013-03-02 01:10:00,
2013-03-01 20:15:00,28.3,22.2,29.93,North,0,4.7,5.6,78,0.00,,,8.96,WUHU216HW,2013-03-02 01:15:00,
2013-03-01 20:20:00,28.3,22.2,29.93,North,0,4.5,5.6,78,0.00,,,8.96,WUHU216HW,2013-03-02 01:20:00,
2013-03-01 20:25:00,28.3,22.2,29.93,North,0,1.6,5.4,78,0.00,,,8.96,WUHU216HW,2013-03-02 01:25:00,
2013-03-01 20:30:00,28.3,22.2,29.93,North,0,1.8,4.5,78,0.00,,,8.96,WUHU216HW,2013-03-02 01:30:00,
2013-03-01 20:35:00,28.3,22.2,29.93,North,0,4.3,5.4,78,0.00,,,8.96,WUHU216HW,2013-03-02 01:35:00,
2013-03-01 20:40:00,28.3,22.2,29.93,North,0,6.3,6.3,78,0.00,,,8.96,WUHU216HW,2013-03-02 01:40:00,
2013-03-01 20:45:00,28.3,22.2,29.93,North,0,2.9,6.7,78,0.00,,,8.96,WUHU216HW,2013-03-02 01:45:00,
2013-03-01 20:50:00,28.3,22.2,29.93,North,0,2.7,6.7,78,0.00,,,8.96,WUHU216HW,2013-03-02 01:50:00,
2013-03-01 20:55:00,28.3,22.2,29.93,North,0,6.3,8.5,78,0.00,,,8.96,WUHU216HW,2013-03-02 01:55:00,
2013-03-01 21:00:00,28.3,22.2,29.94,North,0,4.9,8.5,78,0.00,,,9.38,WUHU216HW,2013-03-02 02:00:00,
2013-03-01 21:05:00,28.1,22.1,29.94,North,0,2.5,7.2,78,0.00,,,9.38,WUHU216HW,2013-03-02 02:05:00,
2013-03-01 21:10:00,28.1,22.1,29.94,North,0,3.8,8.3,78,0.00,,,9.38,WUHU216HW,2013-03-02 02:10:00,
2013-03-01 21:15:00,28.3,22.6,29.94,North,0,2.9,8.3,79,0.00,,,9.38,WUHU216HW,2013-03-02 02:15:00,
2013-03-01 21:20:00,28.3,22.6,29.94,North,0,2.5,6.0,79,0.00,,,9.38,WUHU216HW,2013-03-02 02:20:00,
2013-03-01 21:25:00,28.1,22.4,29.94,North,0,1.8,6.0,79,0.00,,,9.38,WUHU216HW,2013-03-02 02:25:00,
2013-03-01 21:30:00,28.1,22.1,29.94,North,0,1.8,4.9,78,0.00,,,9.38,WUHU216HW,2013-03-02 02:30:00,
2013-03-01 21:35:00,27.9,22.2,29.94,North,0,3.4,7.6,79,0.00,,,9.38,WUHU216HW,2013-03-02 02:35:00,
2013-03-01 21:40:00,27.9,22.2,29.94,North,0,2.5,7.6,79,0.00,,,9.38,WUHU216HW,2013-03-02 02:40:00,
2013-03-01 21:45:00,27.9,22.2,29.94,North,0,4.3,6.3,79,0.00,,,9.38,WUHU216HW,2013-03-02 02:45:00,
2013-03-01 21:50:00,27.9,22.2,29.94,North,0,1.6,6.3,79,0.00,,,9.38,WUHU216HW,2013-03-02 02:50:00,
2013-03-01 21:55:00,27.7,22.1,29.94,North,0,6.3,6.3,79,0.00,,,9.38,WUHU216HW,2013-03-02 02:55:00,
2013-03-01 22:00:00,27.7,22.1,29.94,North,0,3.8,6.3,79,0.00,,,9.81,WUHU216HW,2013-03-02 03:00:00,
2013-03-01 22:05:00,27.7,22.1,29.94,North,0,3.8,6.3,79,0.00,,,9.81,WUHU216HW,2013-03-02 03:05:00,
2013-03-01 22:10:00,27.7,22.1,29.94,North,0,4.0,6.0,79,0.00,,,9.81,WUHU216HW,2013-03-02 03:10:00,
2013-03-01 22:15:00,27.7,22.1,29.94,North,0,5.1,7.4,79,0.00,,,9.81,WUHU216HW,2013-03-02 03:15:00,
2013-03-01 22:20:00,27.7,22.1,29.94,North,0,2.5,7.4,79,0.00,,,9.81,WUHU216HW,2013-03-02 03:20:00,
2013-03-01 22:25:00,27.5,21.9,29.94,North,0,4.0,5.1,79,0.00,,,9.81,WUHU216HW,2013-03-02 03:25:00,
2013-03-01 22:30:00,27.5,21.9,29.95,North,0,1.8,6.5,79,0.00,,,9.81,WUHU216HW,2013-03-02 03:30:00,
2013-03-01 22:35:00,27.4,21.7,29.94,North,0,4.0,6.5,79,0.00,,,9.81,WUHU216HW,2013-03-02 03:35:00,
2013-03-01 22:40:00,27.4,21.7,29.94,North,0,5.1,7.8,79,0.00,,,9.81,WUHU216HW,2013-03-02 03:40:00,
2013-03-01 22:45:00,27.4,21.7,29.95,North,0,4.9,7.8,79,0.00,,,9.81,WUHU216HW,2013-03-02 03:45:00,
2013-03-01 22:50:00,27.2,21.5,29.95,North,0,2.5,5.1,79,0.00,,,9.81,WUHU216HW,2013-03-02 03:50:00,
2013-03-01 22:55:00,27.2,21.5,29.94,North,0,1.8,5.8,79,0.00,,,9.81,WUHU216HW,2013-03-02 03:55:00,
2013-03-01 23:00:00,27.0,21.6,29.95,North,0,3.6,5.8,80,0.00,,,10.23,WUHU216HW,2013-03-02 04:00:00,
2013-03-01 23:05:00,27.0,21.6,29.95,North,0,1.8,5.6,80,0.00,,,10.23,WUHU216HW,2013-03-02 04:05:00,
2013-03-01 23:10:00,27.0,21.6,29.94,North,0,3.1,5.1,80,0.00,,,10.23,WUHU216HW,2013-03-02 04:10:00,
2013-03-01 23:15:00,27.0,21.6,29.94,North,0,1.6,5.1,80,0.00,,,10.23,WUHU216HW,2013-03-02 04:15:00,
2013-03-01 23:20:00,27.0,21.6,29.94,North,0,2.0,7.6,80,0.00,,,10.23,WUHU216HW,2013-03-02 04:20:00,
2013-03-01 23:25:00,27.0,21.6,29.95,North,0,2.7,7.6,80,0.00,,,10.23,WUHU216HW,2013-03-02 04:25:00,
2013-03-01 23:30:00,27.0,21.9,29.94,North,0,3.8,4.3,81,0.00,,,10.23,WUHU216HW,2013-03-02 04:30:00,
2013-03-01 23:35:00,26.8,21.7,29.94,North,0,4.0,4.3,81,0.00,,,10.23,WUHU216HW,2013-03-02 04:35:00,
2013-03-01 23:40:00,26.6,21.2,29.94,North,0,1.6,6.5,80,0.00,,,10.23,WUHU216HW,2013-03-02 04:40:00,
2013-03-01 23:45:00,26.5,21.3,29.94,North,0,1.1,6.5,81,0.00,,,10.23,WUHU216HW,2013-03-02 04:45:00,
2013-03-01 23:50:00,26.3,21.3,29.94,North,0,2.5,4.3,81,0.00,,,10.23,WUHU216HW,2013-03-02 04:50:00,
2013-03-01 23:55:00,26.3,21.3,29.94,North,0,1.6,5.4,81,0.00,,,10.23,WUHU216HW,2013-03-02 04:55:00,